Time;durP1;ratioP1;P1;durP2;ratioP2;P2;SDS_P1;SDS_P2;PMS_P1;PMS_P2;Temp;Humidity;BMP_temperature;BMP_pressure;BME280_temperature;BME280_humidity;BME280_pressure;Samples;Min_cycle;Max_cycle;Signal;HPM_P1;HPM_P2
2023/05/24 00:00:05;;;;;;;10.75;6.55;;;;;;;13.53;nan;-18425.25;5033493;28;20241;-67
2023/05/24 00:02:30;;;;;;;11.07;6.43;;;;;;;13.70;nan;-19069.94;5031738;28;20168;-70
2023/05/24 00:04:59;;;;;;;10.90;6.57;;;;;;;13.42;nan;-21307.72;5031888;28;20198;-68
2023/05/24 00:07:25;;;;;;;10.55;6.00;;;;;;;13.22;nan;-21623.38;5031958;28;20654;-69
2023/05/24 00:09:50;;;;;;;12.00;6.07;;;;;;;13.53;nan;-21310.28;5030912;28;20179;-70
2023/05/24 00:12:15;;;;;;;12.18;6.35;;;;;;;13.62;nan;-20992.03;5030182;28;20164;-69
2023/05/24 00:14:41;;;;;;;10.75;6.13;;;;;;;13.44;nan;-21308.19;5031397;28;20172;-70
2023/05/24 00:17:06;;;;;;;13.15;6.72;;;;;;;13.51;nan;-20668.94;5030910;28;20258;-72
2023/05/24 00:19:32;;;;;;;11.82;6.25;;;;;;;13.43;nan;-20667.16;5029770;28;20207;-68
2023/05/24 00:21:57;;;;;;;9.82;5.70;;;;;;;13.30;nan;-20343.88;5031424;28;20179;-67
2023/05/24 00:24:22;;;;;;;10.10;5.55;;;;;;;13.30;nan;-19703.13;5031376;28;20176;-69
2023/05/24 00:26:48;;;;;;;11.45;6.03;;;;;;;13.53;nan;-19707.91;5031013;28;20724;-67
2023/05/24 00:29:13;;;;;;;10.73;5.53;;;;;;;13.48;nan;-19386.28;5030943;28;20267;-68
2023/05/24 00:31:39;;;;;;;12.90;5.28;;;;;;;13.19;nan;-18739.59;5030811;28;20698;-68
2023/05/24 00:34:05;;;;;;;7.82;5.40;;;;;;;13.24;nan;-18740.56;5031258;28;20645;-67
2023/05/24 00:36:30;;;;;;;11.10;5.82;;;;;;;13.21;nan;-17457.59;5031369;28;20172;-67
2023/05/24 00:38:55;;;;;;;7.70;5.00;;;;;;;13.13;nan;-18417.94;5031426;28;20258;-71
2023/05/24 00:41:21;;;;;;;10.57;5.82;;;;;;;13.08;nan;-18096.53;5031178;28;20199;-67
2023/05/24 00:43:46;;;;;;;14.30;6.20;;;;;;;13.32;nan;-18742.00;5029573;28;20171;-71
2023/05/24 00:46:21;;;;;;;11.65;5.40;;;;;;;12.95;nan;-18734.88;5030967;28;20642;-70
2023/05/24 00:48:48;;;;;;;9.75;5.63;;;;;;;12.84;nan;-19053.25;5031454;28;20178;-68
2023/05/24 00:51:14;;;;;;;8.90;5.22;;;;;;;12.88;nan;-19053.94;5031204;28;20202;-68
2023/05/24 00:53:43;;;;;;;10.25;5.82;;;;;;;12.94;nan;-18414.31;5030640;28;20199;-71
2023/05/24 00:56:10;;;;;;;9.82;5.20;;;;;;;13.29;nan;-17458.97;5030631;28;20334;-70
2023/05/24 00:58:35;;;;;;;10.45;5.22;;;;;;;13.03;nan;-17454.53;5031422;28;20194;-68
2023/05/24 01:01:02;;;;;;;9.15;5.00;;;;;;;13.05;nan;-17775.38;5033028;28;20231;-68
2023/05/24 01:03:28;;;;;;;7.65;4.65;;;;;;;13.10;nan;-17455.81;5031032;28;20241;-69
2023/05/24 01:05:58;;;;;;;10.98;6.10;;;;;;;13.35;nan;-17139.19;5030864;28;20348;-70
2023/05/24 01:08:42;;;;;;;10.43;6.07;;;;;;;13.22;nan;-17457.84;5033884;28;20172;-70
2023/05/24 01:11:34;;;;;;;9.30;5.47;;;;;;;13.31;nan;-17138.53;5034350;28;20242;-71
2023/05/24 01:14:21;;;;;;;10.93;5.32;;;;;;;13.48;nan;-15536.94;5034438;28;20233;-69
2023/05/24 01:16:55;;;;;;;8.75;5.35;;;;;;;13.31;nan;-15855.41;5034189;28;20179;-71
2023/05/24 01:19:48;;;;;;;9.88;5.38;;;;;;;13.25;nan;-16496.19;5034095;28;20194;-70
2023/05/24 01:22:41;;;;;;;10.02;5.75;;;;;;;13.14;nan;-16815.22;5033643;28;20214;-69
2023/05/24 01:25:40;;;;;;;11.02;6.10;;;;;;;13.09;nan;-17134.97;5034263;28;20324;-71
2023/05/24 01:28:08;;;;;;;11.27;5.47;;;;;;;12.77;nan;-17129.72;5034450;28;20171;-68
2023/05/24 01:30:35;;;;;;;12.38;5.47;;;;;;;12.42;nan;-16803.72;5032228;28;20199;-69
2023/05/24 01:33:01;;;;;;;9.63;5.30;;;;;;;12.51;nan;-17445.78;5034181;28;20187;-70
2023/05/24 01:35:26;;;;;;;9.13;5.18;;;;;;;12.46;nan;-17124.66;5033832;28;20245;-69
2023/05/24 01:37:52;;;;;;;9.38;5.50;;;;;;;12.70;nan;-17128.66;5034152;28;20704;-71
2023/05/24 01:40:17;;;;;;;8.82;5.20;;;;;;;12.79;nan;-16809.59;5034000;28;20227;-70
2023/05/24 01:43:12;;;;;;;11.52;5.97;;;;;;;12.80;nan;-17130.31;5034025;28;20317;-68
2023/05/24 01:46:05;;;;;;;9.38;5.00;;;;;;;12.79;nan;-17130.16;5033890;28;20178;-68
2023/05/24 01:48:57;;;;;;;8.75;5.30;;;;;;;12.82;nan;-17130.56;5033731;28;20177;-68
2023/05/24 01:51:25;;;;;;;8.13;4.70;;;;;;;12.55;nan;-17446.38;5032499;28;20286;-69
2023/05/24 01:53:51;;;;;;;9.63;5.63;;;;;;;12.75;nan;-17770.19;5032459;28;20266;-69
2023/05/24 01:56:19;;;;;;;8.88;5.22;;;;;;;12.44;nan;-17444.50;5032915;28;20203;-69
2023/05/24 01:58:46;;;;;;;9.20;4.85;;;;;;;12.40;nan;-17443.97;5030755;28;20562;-69
2023/05/24 02:01:12;;;;;;;9.23;5.45;;;;;;;12.47;nan;-17445.00;5033189;28;20230;-71
2023/05/24 02:03:39;;;;;;;8.27;5.25;;;;;;;12.48;nan;-18085.72;5034170;28;20160;-69
2023/05/24 02:06:05;;;;;;;7.72;5.28;;;;;;;12.44;nan;-17444.50;5032935;28;20253;-70
2023/05/24 02:08:31;;;;;;;7.78;4.82;;;;;;;12.73;nan;-17769.91;5029030;28;20202;-70
2023/05/24 02:10:56;;;;;;;7.25;4.78;;;;;;;12.65;nan;-17448.19;5031863;28;20187;-68
2023/05/24 02:13:22;;;;;;;9.63;4.80;;;;;;;12.70;nan;-17769.38;5032799;28;20164;-71
2023/05/24 02:15:47;;;;;;;8.55;5.53;;;;;;;12.31;nan;-17762.50;5032066;28;20179;-69
2023/05/24 02:18:13;;;;;;;8.05;4.90;;;;;;;12.44;nan;-18405.03;5032613;28;20193;-71
2023/05/24 02:20:38;;;;;;;9.10;5.55;;;;;;;12.33;nan;-18403.16;5032472;28;20203;-70
2023/05/24 02:23:04;;;;;;;11.48;5.25;;;;;;;12.54;nan;-18407.00;5033183;28;20179;-69
2023/05/24 02:25:30;;;;;;;9.95;5.15;;;;;;;12.28;nan;-19042.28;5032846;28;20171;-68
2023/05/24 02:27:59;;;;;;;8.35;4.85;;;;;;;12.54;nan;-18727.09;5033532;28;20708;-72
2023/05/24 02:30:25;;;;;;;7.78;4.38;;;;;;;12.50;nan;-19366.53;5033714;28;20639;-71
2023/05/24 02:32:50;;;;;;;8.82;4.95;;;;;;;12.34;nan;-20643.09;5033164;28;20182;-71
2023/05/24 02:35:16;;;;;;;9.02;4.70;;;;;;;12.06;nan;-21276.31;5033197;28;20194;-71
2023/05/24 02:37:41;;;;;;;9.43;5.22;;;;;;;12.32;nan;-21602.06;5033100;28;20582;-68
2023/05/24 02:40:08;;;;;;;7.75;4.88;;;;;;;12.16;nan;-21918.03;5032725;28;20748;-68
2023/05/24 02:42:33;;;;;;;7.68;4.93;;;;;;;12.15;nan;-21917.78;5031180;28;20202;-69
2023/05/24 02:44:59;;;;;;;12.65;5.00;;;;;;;12.35;nan;-22242.28;5032850;28;20638;-71
2023/05/24 02:47:25;;;;;;;8.38;4.65;;;;;;;12.11;nan;-21916.69;5032983;28;20191;-69
2023/05/24 02:49:54;;;;;;;8.38;4.90;;;;;;;12.32;nan;-21921.94;5031407;28;20176;-68
2023/05/24 02:52:21;;;;;;;8.93;4.20;;;;;;;12.20;nan;-21918.88;5032134;28;20180;-69
2023/05/24 02:54:48;;;;;;;7.65;4.70;;;;;;;12.19;nan;-21918.75;5032543;28;20557;-69
2023/05/24 02:57:13;;;;;;;8.25;4.95;;;;;;;12.54;nan;-21927.09;5032498;28;20536;-68
2023/05/24 02:59:39;;;;;;;8.25;5.00;;;;;;;12.42;nan;-21924.28;5031910;28;20230;-69
2023/05/24 03:02:04;;;;;;;8.95;4.78;;;;;;;12.70;nan;-21931.13;5032906;28;20179;-68
2023/05/24 03:04:30;;;;;;;6.72;4.63;;;;;;;12.70;nan;-21611.06;5032645;28;20185;-69
2023/05/24 03:06:55;;;;;;;7.68;4.72;;;;;;;13.14;nan;-20340.47;5032592;28;20191;-68
2023/05/24 03:09:20;;;;;;;8.93;4.85;;;;;;;13.64;nan;-18748.03;5031958;28;20638;-69
2023/05/24 03:11:46;;;;;;;7.03;4.32;;;;;;;14.13;nan;-14903.31;5032334;28;20187;-71
2023/05/24 03:14:11;;;;;;;9.48;4.55;;;;;;;14.57;nan;-7826.13;5031865;28;20194;-70
2023/05/24 03:16:37;;;;;;;7.72;3.92;;;;;;;14.90;nan;568.31;5030862;28;20673;-70
2023/05/24 03:19:03;;;;;;;6.22;4.00;;;;;;;14.66;nan;-403.97;5030342;28;20182;-69
2023/05/24 03:21:29;;;;;;;7.90;4.40;;;;;;;14.77;nan;-5891.41;5032008;28;20209;-67
2023/05/24 03:23:54;;;;;;;7.47;4.60;;;;;;;15.45;nan;1222.38;5030503;28;20262;-70
2023/05/24 03:26:20;;;;;;;9.85;4.68;;;;;;;16.41;nan;23677.97;5031188;28;20179;-72
2023/05/24 03:28:46;;;;;;;6.47;4.05;;;;;;;17.44;nan;45783.91;5030279;28;20176;-71
2023/05/24 03:31:12;;;;;;;7.28;4.35;;;;;;;18.40;nan;56582.91;5029772;28;20207;-70
2023/05/24 03:33:38;;;;;;;7.28;4.10;;;;;;;19.12;nan;59154.09;5031913;28;20183;-69
2023/05/24 03:36:05;;;;;;;5.70;3.80;;;;;;;19.79;nan;60333.28;5031817;28;20179;-68
2023/05/24 03:38:32;;;;;;;6.65;3.80;;;;;;;20.39;nan;60912.09;5031982;28;20202;-70
2023/05/24 03:40:58;;;;;;;5.47;3.65;;;;;;;20.84;nan;61326.09;5031961;28;20214;-69
2023/05/24 03:43:23;;;;;;;5.15;3.50;;;;;;;21.22;nan;61461.38;5029463;28;20179;-67
2023/05/24 03:45:49;;;;;;;4.93;3.42;;;;;;;21.85;nan;61685.50;5030955;28;20187;-71
2023/05/24 03:48:14;;;;;;;6.03;3.47;;;;;;;22.67;nan;61832.03;5031433;28;20210;-69
2023/05/24 03:50:40;;;;;;;5.68;3.47;;;;;;;23.17;nan;61969.63;5031177;28;20194;-72
2023/05/24 03:53:05;;;;;;;8.25;3.80;;;;;;;24.12;nan;62147.09;5029965;28;20654;-71
2023/05/24 03:55:30;;;;;;;7.55;3.97;;;;;;;24.05;nan;62170.44;5029482;28;20205;-69
2023/05/24 03:57:56;;;;;;;5.60;3.38;;;;;;;24.70;nan;62344.78;5031191;28;20266;-71
2023/05/24 04:00:21;;;;;;;5.32;3.67;;;;;;;24.61;nan;62269.75;5031225;28;20271;-70
2023/05/24 04:02:47;;;;;;;5.68;4.05;;;;;;;24.50;nan;62252.56;5031541;28;20222;-71
2023/05/24 04:05:12;;;;;;;5.07;3.30;;;;;;;24.82;nan;62285.88;5031875;28;20253;-71
2023/05/24 04:07:39;;;;;;;5.18;3.65;;;;;;;25.35;nan;62347.84;5031057;28;20191;-69
2023/05/24 04:10:05;;;;;;;5.70;3.70;;;;;;;25.74;nan;62412.81;5031290;28;20241;-70
2023/05/24 04:12:31;;;;;;;6.60;3.83;;;;;;;25.53;nan;62581.00;5030951;28;20215;-69
2023/05/24 04:14:58;;;;;;;5.72;3.75;;;;;;;25.68;nan;62451.03;5031193;28;20230;-70
2023/05/24 04:17:24;;;;;;;5.82;4.07;;;;;;;26.18;nan;62515.47;5030140;28;20270;-72
2023/05/24 04:19:50;;;;;;;8.35;3.70;;;;;;;25.97;nan;62507.19;5030361;28;20285;-72
2023/05/24 04:22:17;;;;;;;4.93;3.45;;;;;;;26.34;nan;62536.44;5030423;28;20218;-72
2023/05/24 04:24:43;;;;;;;6.57;4.13;;;;;;;26.13;nan;62509.75;5030055;28;20183;-70
2023/05/24 04:27:09;;;;;;;5.53;3.72;;;;;;;25.44;nan;62431.41;5029595;28;20195;-70
2023/05/24 04:29:35;;;;;;;6.53;4.10;;;;;;;23.62;nan;62158.56;5029553;28;20193;-69
2023/05/24 04:32:00;;;;;;;6.28;4.15;;;;;;;23.34;nan;62085.47;5030186;28;20180;-69
2023/05/24 04:34:28;;;;;;;6.10;3.88;;;;;;;23.76;nan;62211.03;5028939;28;20167;-70
2023/05/24 04:36:54;;;;;;;5.53;3.92;;;;;;;24.34;nan;62263.03;5030288;28;20218;-69
2023/05/24 04:39:20;;;;;;;5.57;3.60;;;;;;;24.37;nan;62253.38;5030647;28;20654;-69
2023/05/24 04:41:49;;;;;;;5.30;3.72;;;;;;;23.17;nan;62113.03;5030691;28;20183;-65
2023/05/24 04:44:15;;;;;;;6.43;3.70;;;;;;;22.33;nan;62150.72;5029993;28;20238;-64
2023/05/24 04:46:41;;;;;;;5.30;3.50;;;;;;;21.76;nan;61948.41;5034029;28;20246;-65
2023/05/24 04:49:07;;;;;;;8.73;4.18;;;;;;;21.34;nan;61872.63;5033658;28;20214;-63
2023/05/24 04:51:33;;;;;;;6.50;3.65;;;;;;;21.02;nan;61826.41;5034563;28;20179;-64
2023/05/24 04:54:00;;;;;;;6.80;3.88;;;;;;;21.47;nan;61869.19;5033661;28;20190;-67
2023/05/24 04:56:25;;;;;;;6.47;3.72;;;;;;;21.96;nan;61953.53;5033306;28;20642;-65
2023/05/24 04:58:51;;;;;;;5.15;3.45;;;;;;;21.94;nan;61951.25;5033726;28;20245;-65
2023/05/24 05:01:17;;;;;;;6.20;3.72;;;;;;;21.61;nan;61963.13;5032966;28;20201;-69
2023/05/24 05:03:44;;;;;;;4.90;3.88;;;;;;;22.40;nan;62015.47;5032615;28;20559;-66
2023/05/24 05:06:10;;;;;;;6.40;3.90;;;;;;;21.91;nan;61945.22;5032841;28;20215;-64
2023/05/24 05:08:36;;;;;;;5.35;3.88;;;;;;;22.73;nan;62135.88;5033214;28;20256;-69
2023/05/24 05:11:01;;;;;;;6.43;3.60;;;;;;;23.14;nan;62104.41;5031748;28;20658;-67
2023/05/24 05:13:27;;;;;;;6.20;3.78;;;;;;;23.29;nan;62131.34;5033590;28;20270;-67
2023/05/24 05:15:52;;;;;;;7.28;3.90;;;;;;;23.38;nan;62165.06;5034168;28;20187;-67
2023/05/24 05:18:18;;;;;;;6.47;3.50;;;;;;;23.09;nan;62113.75;5033148;28;20191;-63
2023/05/24 05:20:43;;;;;;;5.63;3.50;;;;;;;23.19;nan;62122.56;5033505;28;20205;-64
2023/05/24 05:23:09;;;;;;;5.25;3.80;;;;;;;23.00;nan;62051.38;5031865;28;20350;-68
2023/05/24 05:25:34;;;;;;;6.78;3.90;;;;;;;23.05;nan;62096.19;5033882;28;20187;-67
2023/05/24 05:28:00;;;;;;;5.47;3.45;;;;;;;22.99;nan;62295.81;5033471;28;20270;-68
2023/05/24 05:30:25;;;;;;;6.80;4.03;;;;;;;22.49;nan;61968.41;5032764;28;20202;-66
2023/05/24 05:32:51;;;;;;;6.78;3.92;;;;;;;22.02;nan;61962.94;5033191;28;20237;-65
2023/05/24 05:35:16;;;;;;;6.38;4.22;;;;;;;20.99;nan;61836.00;5033020;28;20175;-71
2023/05/24 05:37:41;;;;;;;7.35;4.55;;;;;;;20.57;nan;61727.13;5065146;28;20186;-65
2023/05/24 05:40:08;;;;;;;6.05;4.00;;;;;;;20.20;nan;61721.44;5033263;28;20221;-63
2023/05/24 05:42:33;;;;;;;7.75;4.13;;;;;;;20.13;nan;61679.78;5032369;28;20183;-66
2023/05/24 05:44:59;;;;;;;7.47;4.68;;;;;;;20.33;nan;61712.88;5032236;28;20620;-65
2023/05/24 05:47:24;;;;;;;7.03;4.22;;;;;;;20.18;nan;61683.44;5031833;28;21391;-66
2023/05/24 05:49:49;;;;;;;9.45;4.13;;;;;;;20.12;nan;61661.03;5031787;28;20612;-67
2023/05/24 05:52:15;;;;;;;6.07;3.92;;;;;;;20.51;nan;61728.09;5031667;28;20654;-65
2023/05/24 05:54:40;;;;;;;7.05;3.88;;;;;;;20.71;nan;61740.41;5033033;28;20181;-68
2023/05/24 05:57:09;;;;;;;4.88;3.72;;;;;;;20.67;nan;61743.06;5032574;28;20183;-66
2023/05/24 05:59:34;;;;;;;6.60;3.90;;;;;;;20.86;nan;61784.84;5032261;28;20227;-66
2023/05/24 06:02:01;;;;;;;6.57;3.90;;;;;;;20.83;nan;61789.81;5032850;28;20685;-67
2023/05/24 06:04:26;;;;;;;6.18;4.07;;;;;;;20.94;nan;61773.75;5032780;28;20226;-65
2023/05/24 06:06:51;;;;;;;5.28;3.50;;;;;;;21.02;nan;61860.75;5033148;28;20613;-67
2023/05/24 06:09:17;;;;;;;5.80;4.25;;;;;;;20.65;nan;61756.41;5032837;28;20167;-68
2023/05/24 06:11:43;;;;;;;6.07;3.55;;;;;;;20.38;nan;61788.03;5033332;28;20266;-65
2023/05/24 06:14:11;;;;;;;8.52;3.80;;;;;;;20.56;nan;61715.59;5033147;28;20175;-66
2023/05/24 06:16:40;;;;;;;9.25;3.70;;;;;;;20.09;nan;61875.00;5032689;28;20167;-66
2023/05/24 06:19:06;;;;;;;7.95;4.38;;;;;;;19.84;nan;61598.19;5032391;28;20583;-67
2023/05/24 06:21:32;;;;;;;5.13;3.60;;;;;;;19.96;nan;61777.22;5032792;28;20230;-67
2023/05/24 06:23:58;;;;;;;5.55;3.75;;;;;;;19.86;nan;61600.47;5033157;28;20220;-67
2023/05/24 06:26:25;;;;;;;4.90;3.47;;;;;;;19.82;nan;61645.78;5032258;28;20270;-63
2023/05/24 06:28:51;;;;;;;9.07;4.20;;;;;;;20.28;nan;61873.25;5032946;28;20184;-65
2023/05/24 06:31:17;;;;;;;5.57;3.83;;;;;;;20.03;nan;61713.09;5032217;28;20197;-65
2023/05/24 06:33:43;;;;;;;5.07;3.55;;;;;;;20.35;nan;61706.78;5032376;28;20172;-69
2023/05/24 06:36:08;;;;;;;5.78;3.80;;;;;;;20.38;nan;61736.72;5032858;28;20175;-67
2023/05/24 06:38:35;;;;;;;5.22;3.63;;;;;;;20.65;nan;61746.00;5032555;28;20182;-67
2023/05/24 06:41:00;;;;;;;5.82;4.05;;;;;;;20.43;nan;61684.72;5032687;28;20685;-64
2023/05/24 06:43:26;;;;;;;7.55;3.90;;;;;;;20.70;nan;61713.31;5032600;28;20180;-67
2023/05/24 06:45:51;;;;;;;5.32;3.90;;;;;;;20.18;nan;61667.84;5033137;28;20191;-70
2023/05/24 06:48:17;;;;;;;5.22;3.63;;;;;;;19.80;nan;61555.34;5032491;28;20183;-64
2023/05/24 06:50:42;;;;;;;5.88;4.00;;;;;;;19.78;nan;61573.25;5032555;28;20626;-64
2023/05/24 06:53:08;;;;;;;5.82;3.63;;;;;;;19.64;nan;61508.72;5032636;28;20172;-65
2023/05/24 06:55:33;;;;;;;5.88;3.55;;;;;;;19.85;nan;61573.97;5031949;28;20186;-66
2023/05/24 06:57:58;;;;;;;5.75;3.80;;;;;;;19.63;nan;61559.44;5032416;28;20639;-66
2023/05/24 07:00:24;;;;;;;5.82;3.78;;;;;;;19.91;nan;61590.56;5032520;28;20717;-65
2023/05/24 07:02:50;;;;;;;4.85;3.80;;;;;;;19.68;nan;61531.41;5031952;28;20171;-67
2023/05/24 07:05:15;;;;;;;5.35;3.70;;;;;;;20.45;nan;61674.00;5031702;28;20179;-65
2023/05/24 07:07:42;;;;;;;5.95;3.78;;;;;;;20.92;nan;61776.09;5031959;28;20160;-65
2023/05/24 07:10:10;;;;;;;7.38;3.90;;;;;;;20.90;nan;61756.19;5032331;28;20202;-67
2023/05/24 07:12:36;;;;;;;7.38;4.10;;;;;;;21.19;nan;61801.56;5032177;28;20599;-68
2023/05/24 07:15:06;;;;;;;6.70;4.15;;;;;;;21.26;nan;61829.75;5032334;28;20168;-68
2023/05/24 07:17:31;;;;;;;5.50;3.47;;;;;;;21.63;nan;61866.00;5031907;28;20177;-68
2023/05/24 07:19:58;;;;;;;5.35;3.60;;;;;;;21.92;nan;61891.13;5030717;28;20286;-68
2023/05/24 07:22:24;;;;;;;5.38;3.55;;;;;;;21.84;nan;61963.28;5031983;28;20263;-68
2023/05/24 07:24:50;;;;;;;6.35;3.75;;;;;;;21.98;nan;61926.59;5031805;28;20631;-68
2023/05/24 07:27:15;;;;;;;5.55;3.95;;;;;;;22.19;nan;62187.38;5031536;28;20562;-66
2023/05/24 07:29:41;;;;;;;5.00;3.65;;;;;;;22.57;nan;62011.38;5032127;28;20622;-64
2023/05/24 07:32:07;;;;;;;6.82;3.85;;;;;;;22.65;nan;62033.50;5031694;28;20159;-67
2023/05/24 07:34:33;;;;;;;5.40;3.55;;;;;;;22.87;nan;62029.34;5031380;28;20642;-67
2023/05/24 07:36:59;;;;;;;5.45;3.80;;;;;;;22.65;nan;62064.22;5031933;28;20186;-65
2023/05/24 07:39:26;;;;;;;7.05;3.85;;;;;;;23.11;nan;62147.91;5030839;28;20191;-70
2023/05/24 07:41:52;;;;;;;7.35;3.78;;;;;;;22.99;nan;62076.31;5031492;28;20198;-65
2023/05/24 07:44:18;;;;;;;6.47;4.63;;;;;;;22.84;nan;62041.56;5031686;28;20179;-69
2023/05/24 07:46:43;;;;;;;4.60;3.60;;;;;;;23.01;nan;62120.28;5031693;28;20179;-65
2023/05/24 07:49:08;;;;;;;4.72;3.78;;;;;;;23.29;nan;62133.97;5031441;28;20676;-65
2023/05/24 07:51:34;;;;;;;3.83;3.33;;;;;;;23.15;nan;62142.03;5031699;28;20305;-66
2023/05/24 07:53:59;;;;;;;5.55;3.63;;;;;;;23.44;nan;62194.81;5031618;28;20175;-67
2023/05/24 07:56:25;;;;;;;7.85;3.60;;;;;;;23.65;nan;62167.19;5031574;28;20545;-67
2023/05/24 07:58:50;;;;;;;5.70;3.28;;;;;;;24.06;nan;62226.41;5031456;28;20649;-68
2023/05/24 08:01:17;;;;;;;5.47;3.60;;;;;;;24.21;nan;62240.38;5031364;28;20264;-65
2023/05/24 08:03:42;;;;;;;5.63;4.00;;;;;;;24.22;nan;62283.28;5031055;28;20642;-67
2023/05/24 08:06:08;;;;;;;4.97;3.60;;;;;;;23.96;nan;62243.72;5030100;28;20183;-67
2023/05/24 08:08:35;;;;;;;4.75;3.40;;;;;;;23.77;nan;62238.28;5030216;28;20171;-67
2023/05/24 08:11:00;;;;;;;5.63;3.80;;;;;;;24.01;nan;62262.47;5031107;28;20178;-66
2023/05/24 08:13:26;;;;;;;4.43;3.40;;;;;;;24.17;nan;62267.72;5030961;28;20202;-64
2023/05/24 08:15:51;;;;;;;4.32;3.50;;;;;;;24.30;nan;62302.31;5030812;28;20265;-66
2023/05/24 08:18:17;;;;;;;6.65;3.75;;;;;;;24.45;nan;62333.06;5034769;28;20175;-67
2023/05/24 08:20:42;;;;;;;5.50;3.75;;;;;;;24.51;nan;62311.16;5035344;28;20263;-66
2023/05/24 08:23:08;;;;;;;4.65;3.50;;;;;;;24.26;nan;62282.63;5034847;28;20190;-70
2023/05/24 08:25:33;;;;;;;6.05;3.83;;;;;;;24.13;nan;62297.06;5067083;28;20222;-69
2023/05/24 08:27:59;;;;;;;6.53;3.83;;;;;;;24.12;nan;62277.09;5034882;28;20178;-70
2023/05/24 08:30:24;;;;;;;5.00;3.20;;;;;;;24.51;nan;62316.38;5034757;28;20179;-66
2023/05/24 08:32:51;;;;;;;5.28;3.85;;;;;;;24.37;nan;62289.94;5034358;28;20179;-69
2023/05/24 08:35:16;;;;;;;5.22;3.67;;;;;;;24.94;nan;62367.56;5034628;28;20179;-71
2023/05/24 08:37:41;;;;;;;5.57;3.60;;;;;;;25.02;nan;62370.91;5035279;28;20178;-65
2023/05/24 08:40:08;;;;;;;5.47;3.55;;;;;;;24.83;nan;62383.19;5033755;28;20665;-67
2023/05/24 08:42:37;;;;;;;6.72;3.28;;;;;;;24.82;nan;62599.59;5034686;28;20535;-70
2023/05/24 08:45:08;;;;;;;4.68;3.53;;;;;;;24.82;nan;62361.69;5035109;28;20167;-65
2023/05/24 08:47:35;;;;;;;4.55;3.55;;;;;;;25.17;nan;62411.59;5034495;28;20584;-65
2023/05/24 08:50:02;;;;;;;4.97;3.50;;;;;;;25.36;nan;62433.31;5034919;28;20677;-66
2023/05/24 08:52:29;;;;;;;5.05;3.67;;;;;;;25.55;nan;62453.91;5033810;28;20201;-66
2023/05/24 08:54:55;;;;;;;5.07;3.40;;;;;;;25.66;nan;62430.41;5034589;28;20365;-65
2023/05/24 08:57:21;;;;;;;5.05;3.63;;;;;;;25.58;nan;62452.66;5034743;28;20176;-68
2023/05/24 08:59:46;;;;;;;6.28;3.13;;;;;;;25.88;nan;62513.19;5033980;28;20238;-66
2023/05/24 09:02:14;;;;;;;7.60;3.83;;;;;;;26.18;nan;62562.66;5034507;28;20167;-65
2023/05/24 09:04:43;;;;;;;5.65;3.72;;;;;;;26.09;nan;62507.81;5034526;28;20163;-66
2023/05/24 09:07:11;;;;;;;5.25;3.53;;;;;;;26.00;nan;62520.50;5034488;28;20246;-66
2023/05/24 09:09:46;;;;;;;4.03;3.15;;;;;;;25.43;nan;62446.53;5034323;28;20168;-66
2023/05/24 09:12:16;;;;;;;5.25;3.17;;;;;;;25.78;nan;62524.72;5034318;28;20258;-67
2023/05/24 09:14:45;;;;;;;3.85;2.97;;;;;;;25.79;nan;62508.13;5034262;28;20246;-66
2023/05/24 09:17:14;;;;;;;3.72;2.88;;;;;;;25.90;nan;62512.25;5034225;28;20175;-66
2023/05/24 09:19:44;;;;;;;8.05;3.83;;;;;;;26.21;nan;62560.28;5034201;28;20639;-67
2023/05/24 09:22:11;;;;;;;5.50;3.33;;;;;;;26.27;nan;62546.75;5034019;28;20665;-67
2023/05/24 09:24:41;;;;;;;4.88;3.42;;;;;;;26.62;nan;62575.19;5034122;28;20164;-66
2023/05/24 09:27:06;;;;;;;4.50;3.38;;;;;;;26.16;nan;62528.94;5033469;28;20233;-68
2023/05/24 09:29:36;;;;;;;4.07;3.00;;;;;;;26.38;nan;62566.66;5033062;28;20614;-65
2023/05/24 09:32:06;;;;;;;4.10;3.00;;;;;;;26.73;nan;62575.25;5033359;28;20705;-65
2023/05/24 09:34:41;;;;;;;3.67;3.13;;;;;;;26.48;nan;62598.50;5033718;28;20237;-66
2023/05/24 09:37:15;;;;;;;3.60;3.10;;;;;;;26.63;nan;62574.31;5033773;28;20601;-68
2023/05/24 09:39:41;;;;;;;3.60;2.70;;;;;;;26.35;nan;62582.16;5033658;28;20213;-65
2023/05/24 09:42:06;;;;;;;3.92;2.80;;;;;;;26.30;nan;62573.22;5033438;28;20214;-67
2023/05/24 09:44:32;;;;;;;5.03;3.10;;;;;;;26.51;nan;62625.53;5033663;28;20198;-67
2023/05/24 09:47:03;;;;;;;3.88;2.90;;;;;;;25.83;nan;62525.22;5033782;28;20257;-68
2023/05/24 09:49:30;;;;;;;4.63;3.03;;;;;;;26.69;nan;62635.66;5033342;28;20167;-68
2023/05/24 09:51:55;;;;;;;4.03;3.03;;;;;;;26.37;nan;62756.84;5033349;28;20240;-68
2023/05/24 09:54:21;;;;;;;5.95;3.10;;;;;;;26.01;nan;62543.19;5033517;28;20325;-69
2023/05/24 09:56:46;;;;;;;4.15;3.20;;;;;;;26.00;nan;62508.00;5033506;28;20258;-66
2023/05/24 09:59:13;;;;;;;4.93;3.60;;;;;;;26.08;nan;62561.66;5033695;28;20222;-67
2023/05/24 10:01:38;;;;;;;5.80;3.33;;;;;;;25.65;nan;62591.00;5033194;28;20199;-66
2023/05/24 10:04:06;;;;;;;4.72;3.40;;;;;;;25.80;nan;62474.66;5032802;28;20662;-67
2023/05/24 10:06:37;;;;;;;5.38;3.20;;;;;;;25.85;nan;62475.69;5032948;28;20225;-69
2023/05/24 10:09:08;;;;;;;3.85;3.00;;;;;;;26.19;nan;62508.78;5033011;28;20156;-68
2023/05/24 10:11:37;;;;;;;4.13;3.08;;;;;;;26.28;nan;62550.53;5032322;28;20540;-70
2023/05/24 10:14:05;;;;;;;4.13;2.90;;;;;;;25.84;nan;62500.16;5032556;28;20284;-69
2023/05/24 10:16:31;;;;;;;5.40;2.65;;;;;;;25.91;nan;62513.97;5026460;28;20622;-65
2023/05/24 10:18:57;;;;;;;4.18;3.00;;;;;;;26.24;nan;62776.56;5031020;28;20183;-66
2023/05/24 10:21:24;;;;;;;5.05;3.40;;;;;;;26.69;nan;62808.72;5032632;28;20198;-67
2023/05/24 10:23:56;;;;;;;5.03;3.50;;;;;;;26.85;nan;62684.91;5033228;28;20606;-65
2023/05/24 10:26:24;;;;;;;4.45;3.10;;;;;;;27.28;nan;62697.47;5032472;28;20600;-66
2023/05/24 10:28:56;;;;;;;12.52;3.92;;;;;;;27.27;nan;62677.38;5027020;28;20229;-67
2023/05/24 10:31:30;;;;;;;7.25;3.58;;;;;;;26.81;nan;62623.19;5031322;28;20187;-68
2023/05/24 10:33:58;;;;;;;5.18;3.67;;;;;;;26.72;nan;62767.59;4842329;28;20772;-68
2023/05/24 10:36:27;;;;;;;13.52;3.67;;;;;;;26.57;nan;62596.28;4960623;28;20187;-65
2023/05/24 10:38:54;;;;;;;6.20;3.55;;;;;;;26.80;nan;62659.31;5032926;28;20170;-70
2023/05/24 10:41:21;;;;;;;5.93;3.22;;;;;;;27.17;nan;62847.59;5032446;28;20211;-67
2023/05/24 10:43:49;;;;;;;3.80;3.03;;;;;;;27.32;nan;62715.19;5032965;28;20642;-67
2023/05/24 10:46:18;;;;;;;4.10;3.22;;;;;;;27.39;nan;62665.44;5032874;28;20231;-71
2023/05/24 10:48:43;;;;;;;4.45;3.10;;;;;;;27.48;nan;62704.06;5032950;28;20278;-67
2023/05/24 10:51:34;;;;;;;4.90;3.05;;;;;;;27.36;nan;62711.91;5032826;28;20175;-65
2023/05/24 10:54:16;;;;;;;6.03;3.45;;;;;;;27.60;nan;62757.25;5033113;28;20585;-66
2023/05/24 10:56:50;;;;;;;6.53;3.35;;;;;;;26.93;nan;62626.44;5032782;28;20703;-66
2023/05/24 10:59:30;;;;;;;5.68;3.60;;;;;;;26.04;nan;62530.31;5032781;28;20207;-70
2023/05/24 11:01:59;;;;;;;5.45;3.67;;;;;;;27.24;nan;62650.88;5032973;28;20677;-65
2023/05/24 11:04:29;;;;;;;33.42;12.18;;;;;;;27.35;nan;62854.56;5032320;28;20563;-68
2023/05/24 11:07:04;;;;;;;22.67;8.82;;;;;;;27.63;nan;62747.56;5032529;28;20175;-66
2023/05/24 11:09:31;;;;;;;9.25;4.85;;;;;;;27.58;nan;62739.75;5032663;28;20186;-68
2023/05/24 11:12:03;;;;;;;6.07;3.47;;;;;;;28.13;nan;62835.31;5032502;28;20202;-67
2023/05/24 11:14:30;;;;;;;4.85;3.50;;;;;;;27.85;nan;62751.75;5032408;28;20603;-67
2023/05/24 11:16:56;;;;;;;4.72;3.08;;;;;;;27.86;nan;62757.59;5032854;28;20181;-68
2023/05/24 11:19:23;;;;;;;5.45;3.60;;;;;;;28.04;nan;62801.88;5032024;28;20254;-67
2023/05/24 11:21:52;;;;;;;6.80;3.40;;;;;;;27.61;nan;62743.19;5031920;28;20296;-65
2023/05/24 11:24:18;;;;;;;4.68;3.33;;;;;;;27.02;nan;62688.66;5032332;28;20171;-66
2023/05/24 11:26:44;;;;;;;6.60;3.78;;;;;;;27.10;nan;62592.88;5032221;28;20171;-65
2023/05/24 11:29:16;;;;;;;8.68;5.20;;;;;;;26.83;nan;62680.53;5032351;28;20601;-67
2023/05/24 11:31:53;;;;;;;6.07;3.75;;;;;;;27.17;nan;62709.06;5032306;28;20175;-68
2023/05/24 11:34:20;;;;;;;8.40;4.38;;;;;;;27.65;nan;62765.63;5032465;28;20170;-66
2023/05/24 11:36:46;;;;;;;5.35;3.45;;;;;;;26.77;nan;62619.16;5032414;28;20247;-63
2023/05/24 11:39:12;;;;;;;3.90;2.88;;;;;;;26.93;nan;62655.31;5032273;28;20198;-65
2023/05/24 11:41:38;;;;;;;5.00;2.80;;;;;;;26.83;nan;62647.03;5032125;28;20647;-68
2023/05/24 11:44:05;;;;;;;4.85;3.10;;;;;;;26.59;nan;62603.78;5032112;28;20651;-66
2023/05/24 11:46:31;;;;;;;3.65;2.63;;;;;;;26.25;nan;62554.41;5031736;28;20206;-66